Time;durP1;ratioP1;P1;durP2;ratioP2;P2;SDS_P1;SDS_P2;PMS_P1;PMS_P2;Temp;Humidity;BMP_temperature;BMP_pressure;BME280_temperature;BME280_humidity;BME280_pressure;Samples;Min_cycle;Max_cycle;Signal;HPM_P1;HPM_P2
2021/06/11 00:00:24;93200.00;0.31;161.83;0.00;0.00;0.62;;;;;19.20;1.00;;;;;;2280788;61;2023;-86
2021/06/11 00:02:51;199984.00;0.67;345.90;49758.00;0.17;86.77;;;;;19.20;1.00;;;;;;2280822;61;1019;-87
2021/06/11 00:05:17;289767.00;0.97;500.33;75771.00;0.25;131.73;;;;;19.30;1.00;;;;;;2280805;61;913;-87
2021/06/11 00:07:43;13705.00;0.05;24.37;0.00;0.00;0.62;;;;;19.50;1.00;;;;;;2280754;61;1376;-87
2021/06/11 00:10:13;0.00;0.00;0.62;0.00;0.00;0.62;;;;;19.50;1.00;;;;;;2280780;61;1126;-86
2021/06/11 00:12:41;20825.00;0.07;36.70;0.00;0.00;0.62;;;;;19.80;1.00;;;;;;2280697;61;2001;-85
2021/06/11 00:15:11;103962.00;0.35;180.41;0.00;0.00;0.62;;;;;19.80;1.00;;;;;;2280387;61;1575;-87
2021/06/11 00:17:37;0.00;0.00;0.62;0.00;0.00;0.62;;;;;19.40;1.00;;;;;;2280720;61;1323;-87
2021/06/11 00:20:05;0.00;0.00;0.62;0.00;0.00;0.62;;;;;19.30;1.00;;;;;;2280693;61;1121;-87
2021/06/11 00:22:31;86690.00;0.29;150.59;0.00;0.00;0.62;;;;;19.70;1.00;;;;;;2280762;61;1126;-86
2021/06/11 00:24:58;8634.00;0.03;15.58;0.00;0.00;0.62;;;;;19.60;1.00;;;;;;2280721;61;1116;-87
2021/06/11 00:27:24;174123.00;0.58;301.37;9289.00;0.03;16.72;;;;;19.70;1.00;;;;;;2280617;61;1678;-86
2021/06/11 00:29:51;104890.00;0.35;182.01;0.00;0.00;0.62;;;;;19.70;1.00;;;;;;2280661;61;1584;-87
2021/06/11 00:32:18;14890.00;0.05;26.42;0.00;0.00;0.62;;;;;19.50;1.00;;;;;;2280574;61;2005;-86
2021/06/11 00:34:45;0.00;0.00;0.62;0.00;0.00;0.62;;;;;19.40;1.00;;;;;;2280703;61;1045;-86
2021/06/11 00:37:11;341633.00;1.14;589.48;109853.00;0.37;190.58;;;;;19.30;1.00;;;;;;2280600;61;1736;-86
2021/06/11 00:39:38;666288.00;2.22;1148.83;175136.00;0.58;303.11;;;;;19.40;1.00;;;;;;2280661;61;1435;-86
2021/06/11 00:42:05;0.00;0.00;0.62;0.00;0.00;0.62;;;;;19.50;1.00;;;;;;2280658;61;1057;-87
2021/06/11 00:44:32;152643.00;0.51;264.36;0.00;0.00;0.62;;;;;19.60;1.00;;;;;;2280619;61;2069;-86
2021/06/11 00:46:58;139321.00;0.46;241.40;17758.00;0.06;31.39;;;;;19.40;1.00;;;;;;2280652;61;1304;-85
2021/06/11 00:49:26;81944.00;0.27;142.40;0.00;0.00;0.62;;;;;19.10;1.00;;;;;;2280585;61;1685;-85
2021/06/11 00:51:53;52475.00;0.17;91.47;0.00;0.00;0.62;;;;;18.90;1.00;;;;;;2280636;61;1101;-85
2021/06/11 00:54:20;0.00;0.00;0.62;0.00;0.00;0.62;;;;;18.60;1.00;;;;;;2280611;61;1978;-87
2021/06/11 00:56:47;83907.00;0.28;145.79;0.00;0.00;0.62;;;;;18.70;1.00;;;;;;2280635;61;1011;-85
2021/06/11 00:59:14;8726.00;0.03;15.74;0.00;0.00;0.62;;;;;18.70;1.00;;;;;;2280476;61;1375;-86
2021/06/11 01:01:41;107982.00;0.36;187.35;0.00;0.00;0.62;;;;;18.40;1.00;;;;;;2280620;61;1001;-87
2021/06/11 01:04:08;21737.00;0.07;38.28;0.00;0.00;0.62;;;;;18.30;1.00;;;;;;2280490;61;1683;-86
2021/06/11 01:06:39;347291.00;1.16;599.21;100717.00;0.34;174.81;;;;;18.40;1.00;;;;;;2280611;61;1090;-86
2021/06/11 01:09:06;42344.00;0.14;73.94;0.00;0.00;0.62;;;;;18.30;1.00;;;;;;2280539;61;1468;-87
2021/06/11 01:11:33;33102.00;0.11;57.95;0.00;0.00;0.62;;;;;18.20;1.00;;;;;;2280553;61;1065;-85
2021/06/11 01:14:00;14022.00;0.05;24.92;0.00;0.00;0.62;;;;;18.20;1.00;;;;;;2280534;61;1999;-87
2021/06/11 01:16:26;0.00;0.00;0.62;0.00;0.00;0.62;;;;;17.90;1.00;;;;;;2280524;61;1070;-88
2021/06/11 01:18:53;40500.00;0.14;70.75;0.00;0.00;0.62;;;;;17.60;1.00;;;;;;2280495;61;1270;-87
2021/06/11 01:21:23;175733.00;0.59;304.14;39510.00;0.13;69.04;;;;;17.40;1.70;;;;;;2280510;61;916;-86
2021/06/11 01:24:14;219520.00;0.73;379.52;0.00;0.00;0.62;;;;;17.70;1.00;;;;;;2280479;61;1124;-87
2021/06/11 01:26:46;403758.00;1.35;696.27;110833.00;0.37;192.27;;;;;17.60;1.90;;;;;;2280332;61;1050;-87
2021/06/11 01:29:17;80965.00;0.27;140.70;0.00;0.00;0.62;;;;;17.70;3.10;;;;;;2280412;61;1715;-84
2021/06/11 01:31:47;37762.00;0.13;66.02;0.00;0.00;0.62;;;;;17.90;1.80;;;;;;2280239;61;1696;-86
2021/06/11 01:34:18;0.00;0.00;0.62;0.00;0.00;0.62;;;;;18.00;1.00;;;;;;2280388;61;2000;-86
2021/06/11 01:36:49;0.00;0.00;0.62;0.00;0.00;0.62;;;;;18.00;1.00;;;;;;2280484;61;1046;-87
2021/06/11 01:39:20;132536.00;0.44;229.70;0.00;0.00;0.62;;;;;18.20;1.00;;;;;;2280426;61;1391;-86
2021/06/11 01:41:50;342891.00;1.14;591.64;115770.00;0.39;200.79;;;;;18.20;1.00;;;;;;2280447;61;1835;-86
2021/06/11 01:44:18;55475.00;0.18;96.65;0.00;0.00;0.62;;;;;18.10;1.00;;;;;;2280458;61;1063;-86
2021/06/11 01:46:47;1990.00;0.01;4.07;0.00;0.00;0.62;;;;;18.30;1.00;;;;;;2280456;61;955;-86
2021/06/11 01:49:15;199.00;0.00;0.96;0.00;0.00;0.62;;;;;18.50;1.00;;;;;;2280397;61;1389;-86
2021/06/11 01:51:43;0.00;0.00;0.62;0.00;0.00;0.62;;;;;18.60;1.00;;;;;;2280437;61;1017;-87
2021/06/11 01:54:12;0.00;0.00;0.62;0.00;0.00;0.62;;;;;18.80;1.00;;;;;;2280373;61;1997;-86
2021/06/11 01:56:41;0.00;0.00;0.62;0.00;0.00;0.62;;;;;18.70;1.00;;;;;;2280414;61;1043;-85
2021/06/11 01:59:09;177057.00;0.59;306.42;37349.00;0.12;65.30;;;;;18.90;1.00;;;;;;2280299;61;1397;-85
2021/06/11 02:01:36;0.00;0.00;0.62;0.00;0.00;0.62;;;;;18.70;1.00;;;;;;2280404;61;1122;-85
2021/06/11 02:04:04;0.00;0.00;0.62;0.00;0.00;0.62;;;;;18.70;1.00;;;;;;2280375;61;1062;-86
2021/06/11 02:06:31;313544.00;1.05;541.20;90704.00;0.30;157.52;;;;;18.70;1.00;;;;;;2280341;61;1130;-86
2021/06/11 02:08:58;82188.00;0.27;142.82;0.00;0.00;0.62;;;;;19.20;1.00;;;;;;2280323;61;1317;-87
2021/06/11 02:11:26;24471.00;0.08;43.01;0.00;0.00;0.62;;;;;19.60;1.00;;;;;;2280331;61;1006;-86
2021/06/11 02:13:55;83960.00;0.28;145.88;0.00;0.00;0.62;;;;;19.80;1.00;;;;;;2280317;61;1990;-86
2021/06/11 02:16:26;9843.00;0.03;17.68;0.00;0.00;0.62;;;;;19.90;1.00;;;;;;2280328;61;1146;-86
2021/06/11 02:18:53;39758.00;0.13;69.47;0.00;0.00;0.62;;;;;19.60;1.00;;;;;;2280328;61;1400;-87
2021/06/11 02:21:21;0.00;0.00;0.62;0.00;0.00;0.62;;;;;19.20;1.00;;;;;;2280296;61;1130;-86
2021/06/11 02:23:47;4651.00;0.02;8.68;0.00;0.00;0.62;;;;;18.80;1.00;;;;;;2280330;61;1024;-86
2021/06/11 02:26:16;200507.00;0.67;346.80;0.00;0.00;0.62;;;;;18.70;1.00;;;;;;2280364;61;1040;-87
2021/06/11 02:28:42;52659.00;0.18;91.78;0.00;0.00;0.62;;;;;18.60;1.00;;;;;;2280284;61;1395;-86
2021/06/11 02:31:11;43707.00;0.15;76.30;0.00;0.00;0.62;;;;;18.60;1.00;;;;;;2280319;61;1083;-85
2021/06/11 02:33:40;142316.00;0.47;246.56;0.00;0.00;0.62;;;;;18.40;1.00;;;;;;2280244;61;1997;-85
2021/06/11 02:36:06;93478.00;0.31;162.31;0.00;0.00;0.62;;;;;18.50;1.00;;;;;;2280273;61;1603;-86
2021/06/11 02:38:32;89306.00;0.30;155.11;22802.00;0.08;40.12;;;;;18.50;1.00;;;;;;2280990;61;1385;-86
2021/06/11 02:40:59;34371.00;0.11;60.15;0.00;0.00;0.62;;;;;18.50;1.00;;;;;;2281016;61;1149;-84
2021/06/11 02:43:27;78644.00;0.26;136.69;0.00;0.00;0.62;;;;;18.50;1.00;;;;;;2281001;61;1020;-85
2021/06/11 02:45:59;0.00;0.00;0.62;0.00;0.00;0.62;;;;;18.40;1.00;;;;;;2280971;61;1142;-87
2021/06/11 02:48:32;28131.00;0.09;49.35;0.00;0.00;0.62;;;;;18.30;1.00;;;;;;2280947;61;1396;-86
2021/06/11 02:51:04;73661.00;0.25;128.09;0.00;0.00;0.62;;;;;18.30;1.00;;;;;;2280954;61;1592;-86
2021/06/11 02:53:34;0.00;0.00;0.62;0.00;0.00;0.62;;;;;18.10;1.00;;;;;;2280799;61;1915;-86
2021/06/11 02:56:07;14349.00;0.05;25.48;0.00;0.00;0.62;;;;;17.90;1.00;;;;;;2280917;61;1120;-85
2021/06/11 02:58:43;0.00;0.00;0.62;0.00;0.00;0.62;;;;;17.90;1.00;;;;;;2280893;61;1315;-86
2021/06/11 03:01:11;254000.00;0.85;438.83;682.00;0.00;1.80;;;;;17.80;1.00;;;;;;2280970;61;1018;-86
2021/06/11 03:03:40;58800.00;0.20;102.40;0.00;0.00;0.62;;;;;17.60;1.00;;;;;;2280867;61;1556;-87
2021/06/11 03:06:12;0.00;0.00;0.62;0.00;0.00;0.62;;;;;17.60;1.00;;;;;;2280933;61;1013;-87
2021/06/11 03:08:42;3241.00;0.01;6.24;0.00;0.00;0.62;;;;;17.60;1.00;;;;;;2280891;61;1325;-86
2021/06/11 03:11:13;2579.00;0.01;5.09;0.00;0.00;0.62;;;;;17.60;1.00;;;;;;2280871;61;1877;-86
2021/06/11 03:13:41;41202.00;0.14;71.97;0.00;0.00;0.62;;;;;17.60;1.00;;;;;;2280873;61;1996;-87
2021/06/11 03:16:08;52601.00;0.18;91.68;0.00;0.00;0.62;;;;;17.60;1.00;;;;;;2280869;61;1776;-86
2021/06/11 03:18:38;0.00;0.00;0.62;0.00;0.00;0.62;;;;;17.60;1.00;;;;;;2280885;61;1350;-87
2021/06/11 03:21:15;24398.00;0.08;42.89;0.00;0.00;0.62;;;;;17.80;1.00;;;;;;2280889;61;1047;-86
2021/06/11 03:23:47;14314.00;0.05;25.42;0.00;0.00;0.62;;;;;17.60;1.00;;;;;;2280836;61;1742;-87
2021/06/11 03:26:18;0.00;0.00;0.62;0.00;0.00;0.62;;;;;17.70;1.00;;;;;;2280886;61;1114;-86
2021/06/11 03:28:49;0.00;0.00;0.62;0.00;0.00;0.62;;;;;17.70;1.00;;;;;;2280844;61;1437;-86
2021/06/11 03:31:22;0.00;0.00;0.62;0.00;0.00;0.62;;;;;17.60;1.00;;;;;;2280879;61;1141;-87
2021/06/11 03:33:53;11943.00;0.04;21.32;0.00;0.00;0.62;;;;;17.70;1.00;;;;;;2280855;61;1986;-86
2021/06/11 03:36:28;0.00;0.00;0.62;0.00;0.00;0.62;;;;;17.80;1.00;;;;;;2280853;61;1150;-86
2021/06/11 03:39:00;37543.00;0.13;65.64;0.00;0.00;0.62;;;;;17.80;1.00;;;;;;2280749;61;1355;-86
2021/06/11 03:41:27;37950.00;0.13;66.34;0.00;0.00;0.62;;;;;17.90;1.00;;;;;;2280823;61;1006;-87
2021/06/11 03:43:54;3761.00;0.01;7.14;0.00;0.00;0.62;;;;;17.90;1.00;;;;;;2280807;61;1110;-87
2021/06/11 03:46:23;0.00;0.00;0.62;0.00;0.00;0.62;;;;;17.90;1.00;;;;;;2280798;61;1079;-87
2021/06/11 03:48:53;8721.00;0.03;15.73;0.00;0.00;0.62;;;;;17.80;1.00;;;;;;2280566;61;1352;-87
2021/06/11 03:51:21;32698.00;0.11;57.25;0.00;0.00;0.62;;;;;17.80;1.00;;;;;;2280761;61;1600;-86
2021/06/11 03:53:51;79392.00;0.26;137.99;0.00;0.00;0.62;;;;;17.80;1.00;;;;;;2280794;61;1988;-87
2021/06/11 03:56:20;0.00;0.00;0.62;0.00;0.00;0.62;;;;;18.00;1.00;;;;;;2280814;61;1114;-86
2021/06/11 03:58:49;0.00;0.00;0.62;0.00;0.00;0.62;;;;;18.00;1.00;;;;;;2280695;61;1391;-86
2021/06/11 04:01:20;63825.00;0.21;111.09;0.00;0.00;0.62;;;;;18.10;1.00;;;;;;2280778;61;1101;-88
2021/06/11 04:03:47;64189.00;0.21;111.72;0.00;0.00;0.62;;;;;18.20;1.00;;;;;;2280759;61;1601;-86
2021/06/11 04:06:17;0.00;0.00;0.62;0.00;0.00;0.62;;;;;18.30;1.00;;;;;;2280786;61;926;-87
2021/06/11 04:08:45;0.00;0.00;0.62;0.00;0.00;0.62;;;;;18.30;1.00;;;;;;2280705;61;1295;-87
2021/06/11 04:11:16;30261.00;0.10;53.03;0.00;0.00;0.62;;;;;18.30;1.00;;;;;;2280750;61;1011;-88
2021/06/11 04:13:49;0.00;0.00;0.62;0.00;0.00;0.62;;;;;18.20;1.00;;;;;;2280733;61;1905;-87
2021/06/11 04:16:19;0.00;0.00;0.62;0.00;0.00;0.62;;;;;18.30;1.00;;;;;;2280726;61;1185;-86
2021/06/11 04:18:47;72575.00;0.24;126.21;0.00;0.00;0.62;;;;;18.40;1.00;;;;;;2280686;61;1429;-86
2021/06/11 04:21:23;1769.00;0.01;3.69;0.00;0.00;0.62;;;;;18.60;1.00;;;;;;2280719;61;1011;-86
2021/06/11 04:23:57;0.00;0.00;0.62;0.00;0.00;0.62;;;;;18.40;1.00;;;;;;2280698;61;1061;-87
2021/06/11 04:26:27;56592.00;0.19;98.58;0.00;0.00;0.62;;;;;18.40;1.00;;;;;;2280640;61;1022;-85
2021/06/11 04:28:56;0.00;0.00;0.62;0.00;0.00;0.62;;;;;18.50;1.00;;;;;;2280593;61;1296;-85
2021/06/11 04:31:22;0.00;0.00;0.62;0.00;0.00;0.62;;;;;18.70;1.00;;;;;;2280635;61;1146;-86
2021/06/11 04:33:49;121274.00;0.40;210.28;0.00;0.00;0.62;;;;;18.80;1.00;;;;;;2280581;61;2020;-86
2021/06/11 04:36:16;0.00;0.00;0.62;0.00;0.00;0.62;;;;;19.00;1.00;;;;;;2280644;61;1089;-85
2021/06/11 04:38:57;0.00;0.00;0.62;0.00;0.00;0.62;;;;;19.10;1.00;;;;;;2280595;61;1366;-86
2021/06/11 04:41:26;34299.00;0.11;60.02;0.00;0.00;0.62;;;;;19.10;1.00;;;;;;2280660;61;1042;-86
2021/06/11 04:43:52;12821.00;0.04;22.84;0.00;0.00;0.62;;;;;19.30;1.00;;;;;;2280611;61;1738;-87
2021/06/11 04:46:19;37471.00;0.12;65.51;0.00;0.00;0.62;;;;;19.40;1.00;;;;;;2280639;61;1004;-86
2021/06/11 04:48:46;15114.00;0.05;26.81;0.00;0.00;0.62;;;;;19.50;1.00;;;;;;2280578;61;1390;-86
2021/06/11 04:51:13;69908.00;0.23;121.60;0.00;0.00;0.62;;;;;19.80;1.00;;;;;;2280546;61;1734;-86
2021/06/11 04:53:39;0.00;0.00;0.62;0.00;0.00;0.62;;;;;20.00;1.00;;;;;;2280575;61;1993;-86
2021/06/11 04:56:08;18861.00;0.06;33.30;0.00;0.00;0.62;;;;;19.90;1.00;;;;;;2280589;61;1098;-89
2021/06/11 04:58:35;190384.00;0.63;329.37;29476.00;0.10;51.68;;;;;20.30;1.00;;;;;;2280465;61;1565;-86
2021/06/11 05:01:02;0.00;0.00;0.62;0.00;0.00;0.62;;;;;20.40;1.00;;;;;;2280536;61;1114;-86
2021/06/11 05:03:28;384786.00;1.28;663.65;114013.00;0.38;197.75;;;;;20.60;1.00;;;;;;2280525;61;1135;-89
2021/06/11 05:05:54;19656.00;0.07;34.67;0.00;0.00;0.62;;;;;20.90;1.00;;;;;;2280544;61;934;-87
2021/06/11 05:08:21;64307.00;0.21;111.92;0.00;0.00;0.62;;;;;21.00;1.00;;;;;;2280450;61;1440;-89
2021/06/11 05:10:47;47896.00;0.16;83.55;0.00;0.00;0.62;;;;;21.20;1.00;;;;;;2280563;61;926;-87
2021/06/11 05:13:15;62582.00;0.21;108.94;0.00;0.00;0.62;;;;;21.40;1.00;;;;;;2280444;61;1999;-87
2021/06/11 05:15:42;130870.00;0.44;226.83;0.00;0.00;0.62;;;;;21.50;1.00;;;;;;2280478;61;1004;-88
2021/06/11 05:18:09;95638.00;0.32;166.04;0.00;0.00;0.62;;;;;21.50;1.00;;;;;;2280481;61;1395;-87
2021/06/11 05:20:37;0.00;0.00;0.62;0.00;0.00;0.62;;;;;21.30;1.00;;;;;;2280483;61;1162;-87
2021/06/11 05:23:04;27489.00;0.09;48.24;0.00;0.00;0.62;;;;;21.50;1.00;;;;;;2280497;61;1006;-86
2021/06/11 05:25:30;168879.00;0.56;292.34;38528.00;0.13;67.34;;;;;21.40;1.00;;;;;;2280472;61;1736;-87
2021/06/11 05:27:57;58298.00;0.19;101.53;0.00;0.00;0.62;;;;;21.80;1.00;;;;;;2280445;61;1281;-88
2021/06/11 05:30:25;75194.00;0.25;130.73;0.00;0.00;0.62;;;;;21.90;1.00;;;;;;2280399;61;1718;-88
2021/06/11 05:32:52;163986.00;0.55;283.91;50977.00;0.17;88.88;;;;;21.70;1.00;;;;;;2280422;61;1997;-87
2021/06/11 05:35:19;96864.00;0.32;168.16;0.00;0.00;0.62;;;;;21.80;1.00;;;;;;2280306;61;1543;-88
2021/06/11 05:37:46;90081.00;0.30;156.45;0.00;0.00;0.62;;;;;22.00;1.00;;;;;;2280135;61;1383;-88
2021/06/11 05:40:14;17726.00;0.06;31.33;0.00;0.00;0.62;;;;;22.40;1.00;;;;;;2280358;61;944;-87
2021/06/11 05:42:40;16013.00;0.05;28.37;0.00;0.00;0.62;;;;;23.50;1.00;;;;;;2280323;61;1060;-86
2021/06/11 05:45:08;0.00;0.00;0.62;0.00;0.00;0.62;;;;;24.60;1.00;;;;;;2280378;61;1118;-86
2021/06/11 05:47:38;42018.00;0.14;73.38;0.00;0.00;0.62;;;;;25.60;1.00;;;;;;2280307;61;1416;-86
2021/06/11 05:50:06;55317.00;0.18;96.38;0.00;0.00;0.62;;;;;26.70;1.00;;;;;;2280464;61;909;-89
2021/06/11 05:52:33;248747.00;0.83;429.80;0.00;0.00;0.62;;;;;27.70;1.00;;;;;;2280348;61;1911;-89
2021/06/11 05:54:59;79936.00;0.27;138.93;0.00;0.00;0.62;;;;;28.50;1.00;;;;;;2280341;61;1742;-89
2021/06/11 05:57:26;87803.00;0.29;152.51;0.00;0.00;0.62;;;;;28.70;1.00;;;;;;2280314;61;1461;-89
2021/06/11 05:59:55;12643.00;0.04;22.53;0.00;0.00;0.62;;;;;28.70;1.00;;;;;;2280383;61;964;-89
2021/06/11 06:02:21;73340.00;0.24;127.53;0.00;0.00;0.62;;;;;29.20;1.00;;;;;;2280254;61;1599;-89
2021/06/11 06:04:49;193062.00;0.64;333.98;0.00;0.00;0.62;;;;;29.80;1.00;;;;;;2280356;61;1053;-89
2021/06/11 06:07:16;203536.00;0.68;352.01;0.00;0.00;0.62;;;;;30.30;1.00;;;;;;2280319;61;1304;-90
2021/06/11 06:09:43;55351.00;0.18;96.44;0.00;0.00;0.62;;;;;30.30;1.00;;;;;;2280351;61;1222;-89
2021/06/11 06:12:11;59368.00;0.20;103.38;0.00;0.00;0.62;;;;;31.40;1.00;;;;;;2280160;61;1786;-89
2021/06/11 06:14:38;0.00;0.00;0.62;0.00;0.00;0.62;;;;;31.10;1.00;;;;;;2280341;61;1930;-89
2021/06/11 06:17:05;0.00;0.00;0.62;0.00;0.00;0.62;;;;;31.10;1.00;;;;;;2280379;61;926;-89
2021/06/11 06:19:32;115442.00;0.38;200.22;0.00;0.00;0.62;;;;;31.50;1.00;;;;;;2280218;61;1766;-90
2021/06/11 06:22:00;0.00;0.00;0.62;0.00;0.00;0.62;;;;;32.00;1.00;;;;;;2280345;61;1121;-88
2021/06/11 06:24:26;153294.00;0.51;265.48;0.00;0.00;0.62;;;;;32.40;1.00;;;;;;2280323;61;1721;-88
2021/06/11 06:26:53;175293.00;0.58;303.38;0.00;0.00;0.62;;;;;32.40;1.00;;;;;;2280316;61;1124;-89
2021/06/11 06:29:19;247568.00;0.83;427.77;0.00;0.00;0.62;;;;;32.20;1.00;;;;;;2280237;61;1728;-86
2021/06/11 06:31:47;202679.00;0.68;350.54;82522.00;0.28;143.39;;;;;32.80;1.00;;;;;;2280252;61;966;-86
2021/06/11 06:34:13;61482.00;0.20;107.04;0.00;0.00;0.62;;;;;33.50;1.00;;;;;;2280168;61;2002;-87
2021/06/11 06:36:40;27018.00;0.09;47.42;0.00;0.00;0.62;;;;;33.50;1.00;;;;;;2280320;61;993;-87
2021/06/11 06:39:08;367545.00;1.23;634.02;66611.00;0.22;115.90;;;;;34.00;1.00;;;;;;2280241;61;1332;-87
2021/06/11 06:41:37;41490.00;0.14;72.47;0.00;0.00;0.62;;;;;33.80;1.00;;;;;;2280265;61;1061;-88
2021/06/11 06:44:04;97257.00;0.32;168.84;0.00;0.00;0.62;;;;;33.30;1.00;;;;;;2280267;61;1109;-87
2021/06/11 06:46:32;86244.00;0.29;149.82;0.00;0.00;0.62;;;;;33.10;1.00;;;;;;2280257;61;1038;-87
2021/06/11 06:49:00;42484.00;0.14;74.19;0.00;0.00;0.62;;;;;33.40;1.00;;;;;;2280205;61;1682;-88
2021/06/11 06:51:27;85637.00;0.29;148.77;0.00;0.00;0.62;;;;;33.40;1.00;;;;;;2280268;61;972;-85
2021/06/11 06:53:55;91261.00;0.30;158.49;0.00;0.00;0.62;;;;;33.70;1.00;;;;;;2280232;61;1988;-86
2021/06/11 06:56:24;198616.00;0.66;343.54;0.00;0.00;0.62;;;;;33.90;1.00;;;;;;2280178;61;1697;-85
2021/06/11 06:58:51;119855584.00;399.52;69747352.00;119591528.00;398.64;69286960.00;;;;;34.20;1.00;;;;;;2280067;61;1400;-86
2021/06/11 07:01:18;300396.00;1.00;518.60;55207.00;0.18;96.19;;;;;34.50;1.00;;;;;;2280202;61;1118;-85
2021/06/11 07:03:44;188171.00;0.63;325.56;61961.00;0.21;107.87;;;;;34.40;1.00;;;;;;2280174;61;1073;-86
2021/06/11 07:06:13;168183.00;0.56;291.14;61982.00;0.21;107.90;;;;;34.80;1.00;;;;;;2280144;61;1118;-85
2021/06/11 07:08:40;181452.00;0.60;313.99;58571.00;0.20;102.01;;;;;35.40;1.00;;;;;;2280055;61;1610;-87
2021/06/11 07:11:07;365885.00;1.22;631.16;55701.00;0.19;97.04;;;;;35.50;1.00;;;;;;2280146;61;1127;-86
2021/06/11 07:13:35;443953.00;1.48;765.38;165029.00;0.55;285.70;;;;;36.20;1.00;;;;;;2280152;61;1994;-87
2021/06/11 07:16:01;227572.00;0.76;393.37;63850.00;0.21;111.13;;;;;36.70;1.00;;;;;;2280186;61;1001;-86
2021/06/11 07:18:27;166711.00;0.56;288.60;58508.00;0.20;101.90;;;;;36.40;1.00;;;;;;2280101;61;1399;-86
2021/06/11 07:20:54;174566.00;0.58;302.13;66279.00;0.22;115.33;;;;;35.60;1.00;;;;;;2280105;61;1114;-86
2021/06/11 07:23:20;183019.00;0.61;316.69;69869.00;0.23;121.53;;;;;35.60;1.00;;;;;;2280195;61;1066;-87
2021/06/11 07:25:47;177183.00;0.59;306.64;64755.00;0.22;112.70;;;;;35.10;1.00;;;;;;2280772;61;1130;-85
2021/06/11 07:28:13;273811.00;0.91;472.90;63186.00;0.21;109.98;;;;;35.50;1.00;;;;;;2280767;61;1284;-85
2021/06/11 07:30:41;262017.00;0.87;452.62;55405.00;0.18;96.53;;;;;35.40;1.00;;;;;;2280821;61;1017;-86
2021/06/11 07:33:08;174231.00;0.58;301.55;64430.00;0.21;112.13;;;;;34.90;1.00;;;;;;2280515;61;1921;-86
2021/06/11 07:35:35;78800.00;0.26;136.96;0.00;0.00;0.62;;;;;35.20;1.00;;;;;;2280729;61;1043;-86
2021/06/11 07:38:01;117352448.00;391.17;65464308.00;117184336.00;390.61;65183108.00;;;;;35.90;1.00;;;;;;2280713;61;1378;-87
2021/06/11 07:40:28;187793.00;0.63;324.91;53697.00;0.18;93.58;;;;;35.20;1.00;;;;;;2280747;61;1073;-86
2021/06/11 07:42:54;228407.00;0.76;394.81;63915.00;0.21;111.24;;;;;35.30;1.00;;;;;;2280810;61;1015;-86
2021/06/11 07:45:21;0.00;0.00;0.62;0.00;0.00;0.62;;;;;35.30;1.00;;;;;;2280753;61;1123;-88
2021/06/11 07:47:48;68140.00;0.23;118.55;0.00;0.00;0.62;;;;;35.50;1.00;;;;;;2280769;61;1386;-87
2021/06/11 07:50:15;175905.00;0.59;304.44;61139.00;0.20;106.45;;;;;35.60;1.00;;;;;;2280752;61;999;-86
2021/06/11 07:52:41;24724.00;0.08;43.45;0.00;0.00;0.62;;;;;35.40;1.00;;;;;;2280742;61;1066;-85
2021/06/11 07:55:09;213566.00;0.71;369.27;64680.00;0.22;112.57;;;;;35.70;1.00;;;;;;2280789;61;1930;-85
2021/06/11 07:57:36;206377.00;0.69;356.90;57978.00;0.19;100.98;;;;;35.40;1.00;;;;;;2280706;61;1358;-86
2021/06/11 08:00:04;28267.00;0.09;49.58;0.00;0.00;0.62;;;;;35.70;1.00;;;;;;2280770;61;1034;-86
2021/06/11 08:02:30;118241320.00;394.14;66964508.00;118031888.00;393.44;66608996.00;;;;;35.70;1.00;;;;;;2280710;61;1058;-86
2021/06/11 08:04:58;168309.00;0.56;291.35;65260.00;0.22;113.57;;;;;35.30;1.00;;;;;;2280064;61;1066;-86
2021/06/11 08:07:29;169811.00;0.57;293.94;56057.00;0.19;97.66;;;;;35.30;1.00;;;;;;2280689;61;1398;-87
2021/06/11 08:09:56;201557.00;0.67;348.60;58836.00;0.20;102.46;;;;;34.60;1.00;;;;;;2280716;61;1563;-86
2021/06/11 08:12:22;159111.00;0.53;275.51;60279.00;0.20;104.96;;;;;34.30;1.00;;;;;;2280683;61;1114;-85
2021/06/11 08:14:49;170843.00;0.57;295.72;66269.00;0.22;115.31;;;;;33.80;1.00;;;;;;2280642;61;1933;-86
2021/06/11 08:17:15;340494.00;1.13;587.52;114824.00;0.38;199.15;;;;;33.80;1.00;;;;;;2280577;61;1237;-85
2021/06/11 08:19:42;191109.00;0.64;330.62;66888.00;0.22;116.38;;;;;34.00;1.00;;;;;;2280421;61;1153;-85
2021/06/11 08:22:10;173988.00;0.58;301.14;62522.00;0.21;108.84;;;;;34.70;1.00;;;;;;2280462;61;1132;-85
2021/06/11 08:24:36;247351.00;0.82;427.40;55583.00;0.19;96.84;;;;;34.70;1.00;;;;;;2280621;61;1867;-85
2021/06/11 08:27:03;166239.00;0.55;287.79;61222.00;0.20;106.59;;;;;35.00;1.00;;;;;;2280719;61;1114;-86
2021/06/11 08:29:30;272546.00;0.91;470.72;60596.00;0.20;105.51;;;;;35.20;1.00;;;;;;2280689;61;1305;-86
2021/06/11 08:31:56;303208.00;1.01;523.43;57352.00;0.19;99.90;;;;;35.70;1.00;;;;;;2280680;61;1071;-86
2021/06/11 08:34:23;348159.00;1.16;600.70;64638.00;0.22;112.49;;;;;35.90;1.00;;;;;;2280522;61;1993;-86
2021/06/11 08:36:49;206170.00;0.69;356.54;60008.00;0.20;104.49;;;;;35.80;1.00;;;;;;2280501;61;1083;-85
2021/06/11 08:39:17;298787.00;1.00;515.83;65970.00;0.22;114.80;;;;;35.80;1.00;;;;;;2280145;61;1677;-85
2021/06/11 08:41:44;301850.00;1.01;521.10;45653.00;0.15;79.67;;;;;36.10;1.00;;;;;;2280312;61;1090;-85
2021/06/11 08:44:13;169790.00;0.57;293.90;57571.00;0.19;100.28;;;;;35.20;1.00;;;;;;2280536;61;1099;-85
2021/06/11 08:46:41;255065.00;0.85;440.66;59786.00;0.20;104.11;;;;;35.90;1.00;;;;;;2280598;61;1040;-84
2021/06/11 08:49:08;288048.00;0.96;497.37;55447.00;0.18;96.61;;;;;35.50;1.00;;;;;;2280502;61;1744;-85
2021/06/11 08:51:34;261312.00;0.87;451.40;59050.00;0.20;102.83;;;;;35.00;1.00;;;;;;2280398;61;1526;-85
2021/06/11 08:54:00;168321.00;0.56;291.37;54588.00;0.18;95.12;;;;;34.90;1.00;;;;;;2280502;61;2010;-85
2021/06/11 08:56:28;351442.00;1.17;606.34;82739.00;0.28;143.77;;;;;34.50;1.00;;;;;;2280572;61;1052;-85
2021/06/11 08:58:55;198157.00;0.66;342.75;49624.00;0.17;86.54;;;;;34.20;1.00;;;;;;2280279;61;1391;-85
2021/06/11 09:01:21;13385.00;0.04;23.81;0.00;0.00;0.62;;;;;34.50;1.00;;;;;;2280484;61;1023;-85
2021/06/11 09:03:49;84014.00;0.28;145.97;0.00;0.00;0.62;;;;;34.40;1.00;;;;;;2280427;61;903;-85
2021/06/11 09:06:17;7074.00;0.02;12.88;0.00;0.00;0.62;;;;;34.40;1.00;;;;;;2280470;61;1011;-86
2021/06/11 09:08:51;57179.00;0.19;99.60;0.00;0.00;0.62;;;;;34.70;1.00;;;;;;2280430;61;1289;-85
2021/06/11 09:11:19;0.00;0.00;0.62;0.00;0.00;0.62;;;;;34.70;1.00;;;;;;2280477;61;954;-85
2021/06/11 09:13:51;0.00;0.00;0.62;0.00;0.00;0.62;;;;;34.50;1.00;;;;;;2280430;61;1992;-86
2021/06/11 09:16:20;0.00;0.00;0.62;0.00;0.00;0.62;;;;;34.70;1.00;;;;;;2280260;61;1125;-86
2021/06/11 09:18:49;112170.00;0.37;194.57;0.00;0.00;0.62;;;;;34.50;1.00;;;;;;2280386;61;1413;-86
2021/06/11 09:21:31;0.00;0.00;0.62;0.00;0.00;0.62;;;;;34.60;1.00;;;;;;2280418;61;1143;-87
2021/06/11 09:24:16;66509.00;0.22;115.73;0.00;0.00;0.62;;;;;34.10;1.00;;;;;;2280428;61;1043;-86
2021/06/11 09:26:43;0.00;0.00;0.62;0.00;0.00;0.62;;;;;34.20;1.00;;;;;;2280434;61;1133;-87
2021/06/11 09:29:21;84253.00;0.28;146.38;0.00;0.00;0.62;;;;;33.50;1.00;;;;;;2280392;61;1393;-85
2021/06/11 09:31:48;0.00;0.00;0.62;0.00;0.00;0.62;;;;;33.30;1.00;;;;;;2280408;61;1138;-87
2021/06/11 09:34:25;0.00;0.00;0.62;0.00;0.00;0.62;;;;;32.60;1.00;;;;;;2280398;61;1992;-86
2021/06/11 09:37:00;176926.00;0.59;306.20;0.00;0.00;0.62;;;;;32.20;1.00;;;;;;2280414;61;1135;-86
2021/06/11 09:39:40;43118.00;0.14;75.28;0.00;0.00;0.62;;;;;31.60;1.00;;;;;;2280386;61;1281;-87
2021/06/11 09:42:07;0.00;0.00;0.62;0.00;0.00;0.62;;;;;31.40;1.00;;;;;;2280367;61;1174;-87
2021/06/11 09:44:35;0.00;0.00;0.62;0.00;0.00;0.62;;;;;31.30;1.00;;;;;;2280390;61;937;-87
2021/06/11 09:47:02;21875.00;0.07;38.52;0.00;0.00;0.62;;;;;31.30;1.00;;;;;;2280163;61;933;-87
2021/06/11 09:49:39;145520.00;0.49;252.09;0.00;0.00;0.62;;;;;31.40;1.00;;;;;;2280277;61;1417;-88
2021/06/11 09:52:07;18134.00;0.06;32.04;0.00;0.00;0.62;;;;;31.70;1.00;;;;;;2280321;61;1037;-88
2021/06/11 09:54:33;0.00;0.00;0.62;0.00;0.00;0.62;;;;;32.00;1.00;;;;;;2280302;61;1998;-87
2021/06/11 09:57:18;17324.00;0.06;30.64;0.00;0.00;0.62;;;;;32.10;1.00;;;;;;2280380;61;1062;-88
2021/06/11 09:59:46;0.00;0.00;0.62;0.00;0.00;0.62;;;;;31.80;1.00;;;;;;2280323;61;1130;-87
2021/06/11 10:02:14;30093.00;0.10;52.74;0.00;0.00;0.62;;;;;31.30;1.00;;;;;;2280334;61;1054;-87
2021/06/11 10:04:41;40500.00;0.14;70.75;0.00;0.00;0.62;;;;;31.00;1.00;;;;;;2280281;61;1075;-87
2021/06/11 10:07:09;110779.00;0.37;192.17;0.00;0.00;0.62;;;;;31.00;1.00;;;;;;2280298;61;1056;-89